Time,TemperatureF,DewpointF,PressureIn,WindDirection,WindDirectionDegrees,WindSpeedMPH,WindSpeedGustMPH,Humidity,HourlyPrecipIn,Conditions,Clouds,dailyrainin,SoftwareType,DateUTC
2013-10-04 00:31:00,63.0,61.0,29.97,East,96,0.0,0.0,92,0.00,,,0.00,weatherlink.com 1.10,2013-10-04 04:31:00,
2013-10-04 00:46:00,62.6,61.0,29.97,East,96,0.0,0.0,93,0.00,,,0.00,weatherlink.com 1.10,2013-10-04 04:46:00,
2013-10-04 01:01:00,62.2,60.0,29.97,East,95,0.0,0.0,93,0.00,,,0.00,weatherlink.com 1.10,2013-10-04 05:01:00,
2013-10-04 01:16:00,61.9,60.0,29.97,East,96,0.0,0.0,93,0.00,,,0.00,weatherlink.com 1.10,2013-10-04 05:16:00,
2013-10-04 01:31:00,61.6,60.0,29.98,East,96,0.0,0.0,94,0.00,,,0.00,weatherlink.com 1.10,2013-10-04 05:31:00,
2013-10-04 01:46:00,61.4,60.0,29.98,East,96,0.0,0.0,94,0.00,,,0.00,weatherlink.com 1.10,2013-10-04 05:46:00,
2013-10-04 02:01:00,61.4,60.0,29.98,East,95,0.0,0.0,95,0.00,,,0.00,weatherlink.com 1.10,2013-10-04 06:01:00,
2013-10-04 02:16:00,61.2,60.0,29.98,East,95,0.0,0.0,94,0.00,,,0.00,weatherlink.com 1.10,2013-10-04 06:16:00,
2013-10-04 02:31:00,60.8,59.0,29.98,East,96,0.0,0.0,94,0.00,,,0.00,weatherlink.com 1.10,2013-10-04 06:31:00,
2013-10-04 02:46:00,60.6,59.0,29.98,East,96,0.0,0.0,95,0.00,,,0.00,weatherlink.com 1.10,2013-10-04 06:46:00,
2013-10-04 03:01:00,60.3,59.0,29.97,East,96,0.0,0.0,95,0.00,,,0.00,weatherlink.com 1.10,2013-10-04 07:01:00,
2013-10-04 03:16:00,60.0,59.0,29.97,East,95,0.0,0.0,95,0.00,,,0.00,weatherlink.com 1.10,2013-10-04 07:16:00,
2013-10-04 03:31:00,59.9,59.0,29.97,East,96,0.0,1.0,95,0.00,,,0.00,weatherlink.com 1.10,2013-10-04 07:31:00,
2013-10-04 03:46:00,59.9,59.0,29.97,East,95,0.0,0.0,96,0.00,,,0.00,weatherlink.com 1.10,2013-10-04 07:46:00,
2013-10-04 04:01:00,59.8,59.0,29.97,East,96,0.0,0.0,96,0.00,,,0.00,weatherlink.com 1.10,2013-10-04 08:01:00,
2013-10-04 04:16:00,59.6,59.0,29.97,East,96,0.0,0.0,96,0.00,,,0.00,weatherlink.com 1.10,2013-10-04 08:16:00,
2013-10-04 04:31:00,59.3,58.0,29.97,East,96,0.0,0.0,96,0.00,,,0.00,weatherlink.com 1.10,2013-10-04 08:31:00,
2013-10-04 04:46:00,59.1,58.0,29.98,East,96,0.0,0.0,96,0.00,,,0.00,weatherlink.com 1.10,2013-10-04 08:46:00,
2013-10-04 05:02:00,59.2,58.0,29.98,East,95,0.0,0.0,96,0.00,,,0.00,weatherlink.com 1.10,2013-10-04 09:02:00,
2013-10-04 05:17:00,59.1,58.0,29.98,East,96,0.0,0.0,96,0.00,,,0.00,weatherlink.com 1.10,2013-10-04 09:17:00,
2013-10-04 05:32:00,59.0,58.0,29.98,East,96,0.0,0.0,96,0.00,,,0.00,weatherlink.com 1.10,2013-10-04 09:32:00,
2013-10-04 05:47:00,58.9,58.0,29.98,East,95,0.0,0.0,96,0.00,,,0.00,weatherlink.com 1.10,2013-10-04 09:47:00,
2013-10-04 06:02:00,58.8,58.0,29.98,East,95,0.0,0.0,97,0.02,,,0.02,weatherlink.com 1.10,2013-10-04 10:02:00,
2013-10-04 06:17:00,59.0,58.0,29.99,East,95,0.0,1.0,97,0.04,,,0.04,weatherlink.com 1.10,2013-10-04 10:17:00,
2013-10-04 06:32:00,59.1,58.0,30.00,East,95,0.0,0.0,97,0.04,,,0.04,weatherlink.com 1.10,2013-10-04 10:32:00,
2013-10-04 06:47:00,59.1,58.0,30.00,East,95,0.0,0.0,97,0.04,,,0.04,weatherlink.com 1.10,2013-10-04 10:47:00,
2013-10-04 07:02:00,59.4,59.0,30.00,East,95,0.0,1.0,97,0.02,,,0.04,weatherlink.com 1.10,2013-10-04 11:02:00,
2013-10-04 07:17:00,59.6,59.0,30.01,East,95,0.0,0.0,97,0.00,,,0.04,weatherlink.com 1.10,2013-10-04 11:17:00,
2013-10-04 07:32:00,60.0,59.0,30.01,NNE,17,0.0,0.0,97,0.00,,,0.04,weatherlink.com 1.10,2013-10-04 11:32:00,
2013-10-04 07:47:00,60.4,60.0,30.02,NNE,17,0.0,0.0,98,0.00,,,0.04,weatherlink.com 1.10,2013-10-04 11:47:00,
2013-10-04 08:02:00,60.7,60.0,30.01,NNE,17,0.0,1.0,98,0.00,,,0.04,weatherlink.com 1.10,2013-10-04 12:02:00,
2013-10-04 08:17:00,61.1,60.0,30.02,NNE,17,0.0,0.0,97,0.00,,,0.04,weatherlink.com 1.10,2013-10-04 12:17:00,
2013-10-04 08:32:00,61.5,61.0,30.02,NNE,17,0.0,0.0,97,0.00,,,0.04,weatherlink.com 1.10,2013-10-04 12:32:00,
2013-10-04 08:47:00,62.3,62.0,30.02,NNE,17,0.0,0.0,97,0.00,,,0.04,weatherlink.com 1.10,2013-10-04 12:47:00,
2013-10-04 09:02:00,63.9,63.0,30.03,NNE,17,0.0,1.0,97,0.00,,,0.04,weatherlink.com 1.10,2013-10-04 13:02:00,
2013-10-04 09:17:00,65.4,64.0,30.04,North,10,0.0,1.0,94,0.00,,,0.04,weatherlink.com 1.10,2013-10-04 13:17:00,
2013-10-04 09:32:00,66.8,64.0,30.03,NNE,29,0.0,1.0,89,0.00,,,0.04,weatherlink.com 1.10,2013-10-04 13:32:00,
2013-10-04 09:47:00,67.2,64.0,30.03,NNE,29,0.0,1.0,88,0.00,,,0.04,weatherlink.com 1.10,2013-10-04 13:47:00,
2013-10-04 10:02:00,67.7,64.0,30.03,NNE,29,1.0,1.0,87,0.00,,,0.04,weatherlink.com 1.10,2013-10-04 14:02:00,
2013-10-04 10:17:00,68.3,64.0,30.03,NNE,29,0.0,1.0,87,0.00,,,0.04,weatherlink.com 1.10,2013-10-04 14:17:00,
2013-10-04 10:32:00,70.2,65.0,30.03,West,276,0.0,1.0,84,0.00,,,0.04,weatherlink.com 1.10,2013-10-04 14:32:00,
2013-10-04 10:47:00,71.2,66.0,30.03,West,276,0.0,0.0,83,0.00,,,0.04,weatherlink.com 1.10,2013-10-04 14:47:00,
2013-10-04 11:02:00,72.1,66.0,30.03,West,276,0.0,2.0,80,0.00,,,0.04,weatherlink.com 1.10,2013-10-04 15:02:00,
2013-10-04 11:17:00,73.1,66.0,30.02,SE,125,0.0,2.0,77,0.00,,,0.04,weatherlink.com 1.10,2013-10-04 15:17:00,
2013-10-04 11:32:00,75.5,67.0,30.02,East,80,0.0,2.0,75,0.00,,,0.04,weatherlink.com 1.10,2013-10-04 15:32:00,
2013-10-04 11:48:00,77.3,66.0,30.02,East,90,0.0,3.0,69,0.00,,,0.04,weatherlink.com 1.10,2013-10-04 15:48:00,
2013-10-04 12:03:00,79.5,68.0,30.01,SE,136,0.0,2.0,68,0.00,,,0.04,weatherlink.com 1.10,2013-10-04 16:03:00,
2013-10-04 12:18:00,80.2,68.0,30.01,NNE,30,1.0,3.0,66,0.00,,,0.04,weatherlink.com 1.10,2013-10-04 16:18:00,
2013-10-04 12:33:00,81.9,67.0,30.00,ENE,74,2.0,6.0,61,0.00,,,0.04,weatherlink.com 1.10,2013-10-04 16:33:00,
2013-10-04 12:48:00,82.7,68.0,30.00,NW,318,1.0,8.0,62,0.00,,,0.04,weatherlink.com 1.10,2013-10-04 16:48:00,
2013-10-04 13:03:00,83.3,67.0,29.99,WNW,292,3.0,7.0,59,0.00,,,0.04,weatherlink.com 1.10,2013-10-04 17:03:00,
2013-10-04 13:18:00,83.8,67.0,29.98,West,281,5.0,7.0,57,0.00,,,0.04,weatherlink.com 1.10,2013-10-04 17:18:00,
2013-10-04 13:33:00,83.8,67.0,29.98,West,279,1.0,6.0,58,0.00,,,0.04,weatherlink.com 1.10,2013-10-04 17:33:00,
2013-10-04 14:03:00,85.2,67.0,29.97,West,276,1.0,6.0,55,0.00,,,0.04,weatherlink.com 1.10,2013-10-04 18:03:00,
2013-10-04 14:18:00,85.6,65.0,29.96,West,277,1.0,7.0,50,0.00,,,0.04,weatherlink.com 1.10,2013-10-04 18:18:00,
2013-10-04 14:33:00,85.0,65.0,29.96,SSE,165,0.0,5.0,51,0.00,,,0.04,weatherlink.com 1.10,2013-10-04 18:33:00,
2013-10-04 14:48:00,85.4,66.0,29.95,NNE,27,0.0,4.0,52,0.00,,,0.04,weatherlink.com 1.10,2013-10-04 18:48:00,
2013-10-04 15:18:00,85.3,66.0,29.95,WNW,302,2.0,6.0,52,0.00,,,0.04,weatherlink.com 1.10,2013-10-04 19:18:00,
2013-10-04 15:33:00,85.5,64.0,29.95,NNE,32,0.0,4.0,49,0.00,,,0.04,weatherlink.com 1.10,2013-10-04 19:33:00,
2013-10-04 15:48:00,85.2,66.0,29.95,NW,318,0.0,6.0,53,0.00,,,0.04,weatherlink.com 1.10,2013-10-04 19:48:00,
2013-10-04 16:03:00,85.1,64.0,29.94,SSW,211,0.0,3.0,50,0.00,,,0.04,weatherlink.com 1.10,2013-10-04 20:03:00,
2013-10-04 16:18:00,84.9,65.0,29.94,NW,326,2.0,6.0,52,0.00,,,0.04,weatherlink.com 1.10,2013-10-04 20:18:00,
2013-10-04 16:33:00,84.7,65.0,29.94,WNW,289,2.0,6.0,52,0.00,,,0.04,weatherlink.com 1.10,2013-10-04 20:33:00,
2013-10-04 16:48:00,84.5,65.0,29.94,West,269,0.0,4.0,52,0.00,,,0.04,weatherlink.com 1.10,2013-10-04 20:48:00,
2013-10-04 17:03:00,84.2,64.0,29.94,WNW,289,1.0,5.0,51,0.00,,,0.04,weatherlink.com 1.10,2013-10-04 21:03:00,
2013-10-04 17:18:00,84.0,64.0,29.94,NW,315,2.0,6.0,51,0.00,,,0.04,weatherlink.com 1.10,2013-10-04 21:18:00,
2013-10-04 17:33:00,83.7,64.0,29.93,West,280,1.0,4.0,52,0.00,,,0.04,weatherlink.com 1.10,2013-10-04 21:33:00,
2013-10-04 17:48:00,83.5,65.0,29.93,NNW,344,1.0,3.0,53,0.00,,,0.04,weatherlink.com 1.10,2013-10-04 21:48:00,
2013-10-04 18:03:00,83.0,65.0,29.94,NW,316,1.0,5.0,54,0.00,,,0.04,weatherlink.com 1.10,2013-10-04 22:03:00,
2013-10-04 18:18:00,82.5,65.0,29.94,WNW,293,0.0,0.0,55,0.00,,,0.04,weatherlink.com 1.10,2013-10-04 22:18:00,
2013-10-04 18:33:00,81.4,66.0,29.94,WNW,293,0.0,0.0,60,0.00,,,0.04,weatherlink.com 1.10,2013-10-04 22:33:00,
2013-10-04 18:48:00,79.5,66.0,29.94,WNW,293,0.0,0.0,64,0.00,,,0.04,weatherlink.com 1.10,2013-10-04 22:48:00,
2013-10-04 19:03:00,77.8,66.0,29.94,WNW,293,0.0,0.0,67,0.00,,,0.04,weatherlink.com 1.10,2013-10-04 23:03:00,
2013-10-04 19:18:00,75.9,65.0,29.95,WNW,293,0.0,0.0,70,0.00,,,0.04,weatherlink.com 1.10,2013-10-04 23:18:00,
2013-10-04 19:33:00,74.4,65.0,29.95,WNW,293,0.0,0.0,73,0.00,,,0.04,weatherlink.com 1.10,2013-10-04 23:33:00,
2013-10-04 19:48:00,73.3,65.0,29.96,WNW,293,0.0,0.0,76,0.00,,,0.04,weatherlink.com 1.10,2013-10-04 23:48:00,
2013-10-04 20:03:00,72.4,66.0,29.96,WNW,293,0.0,0.0,79,0.00,,,0.04,weatherlink.com 1.10,2013-10-05 00:03:00,
2013-10-04 20:18:00,71.9,65.0,29.96,WNW,293,0.0,0.0,80,0.00,,,0.04,weatherlink.com 1.10,2013-10-05 00:18:00,
2013-10-04 20:33:00,71.6,66.0,29.96,WNW,293,0.0,0.0,81,0.00,,,0.04,weatherlink.com 1.10,2013-10-05 00:33:00,
2013-10-04 20:48:00,71.3,66.0,29.96,WNW,293,0.0,0.0,82,0.00,,,0.04,weatherlink.com 1.10,2013-10-05 00:48:00,
2013-10-04 21:03:00,71.0,66.0,29.96,WNW,293,0.0,0.0,83,0.00,,,0.04,weatherlink.com 1.10,2013-10-05 01:03:00,
2013-10-04 21:18:00,70.8,65.0,29.96,WNW,293,0.0,0.0,83,0.00,,,0.04,weatherlink.com 1.10,2013-10-05 01:18:00,
2013-10-04 21:33:00,70.7,66.0,29.96,WNW,293,0.0,0.0,84,0.00,,,0.04,weatherlink.com 1.10,2013-10-05 01:33:00,
2013-10-04 21:48:00,70.4,65.0,29.96,WNW,293,0.0,0.0,84,0.00,,,0.04,weatherlink.com 1.10,2013-10-05 01:48:00,
2013-10-04 22:03:00,69.9,65.0,29.97,WNW,293,0.0,0.0,85,0.00,,,0.04,weatherlink.com 1.10,2013-10-05 02:03:00,
2013-10-04 22:18:00,69.2,65.0,29.98,WNW,293,0.0,0.0,87,0.00,,,0.04,weatherlink.com 1.10,2013-10-05 02:18:00,
2013-10-04 22:33:00,68.7,65.0,29.98,WNW,293,0.0,0.0,88,0.00,,,0.04,weatherlink.com 1.10,2013-10-05 02:33:00,
2013-10-04 22:48:00,68.1,65.0,29.98,WNW,293,0.0,0.0,88,0.00,,,0.04,weatherlink.com 1.10,2013-10-05 02:48:00,
2013-10-04 23:03:00,67.5,64.0,29.98,WNW,293,0.0,0.0,89,0.00,,,0.04,weatherlink.com 1.10,2013-10-05 03:03:00,
2013-10-04 23:18:00,66.7,64.0,29.99,WNW,293,0.0,1.0,90,0.00,,,0.04,weatherlink.com 1.10,2013-10-05 03:18:00,
2013-10-04 23:34:00,66.3,64.0,29.99,WNW,293,0.0,0.0,91,0.00,,,0.04,weatherlink.com 1.10,2013-10-05 03:34:00,
2013-10-04 23:48:00,66.1,64.0,29.98,WNW,293,0.0,0.0,92,0.00,,,0.04,weatherlink.com 1.10,2013-10-05 03:48:00,